createdAt,value
2023-01-27T00:00:23.383Z,98697.81
2023-01-27T00:01:24.687Z,98709.63
2023-01-27T00:02:26.050Z,98700.00
2023-01-27T00:03:27.345Z,98700.78
2023-01-27T00:04:28.660Z,98700.56
2023-01-27T00:05:29.956Z,98705.56
2023-01-27T00:06:31.198Z,98695.13
2023-01-27T00:07:33.046Z,98696.50
2023-01-27T00:08:34.233Z,98696.25
2023-01-27T00:09:35.502Z,98697.63
2023-01-27T00:10:36.831Z,98689.81
2023-01-27T00:11:38.063Z,98693.78
2023-01-27T00:12:39.274Z,98692.97
2023-01-27T00:13:40.605Z,98693.09
2023-01-27T00:14:41.799Z,98695.47
2023-01-27T00:15:43.152Z,98690.25
2023-01-27T00:16:44.370Z,98694.78
2023-01-27T00:17:45.596Z,98701.03
2023-01-27T00:18:46.905Z,98691.28
2023-01-27T00:19:48.221Z,98700.34
2023-01-27T00:20:49.466Z,98697.50
2023-01-27T00:21:50.735Z,98698.31
2023-01-27T00:22:52.019Z,98691.88
2023-01-27T00:23:53.258Z,98688.56
2023-01-27T00:24:54.587Z,98692.97
2023-01-27T00:25:55.854Z,98690.25
2023-01-27T00:26:57.110Z,98688.69
2023-01-27T00:27:58.374Z,98686.31
2023-01-27T00:29:00.226Z,98683.72
2023-01-27T00:30:01.563Z,98688.44
2023-01-27T00:31:02.897Z,98687.44
2023-01-27T00:32:04.620Z,98689.03
2023-01-27T00:33:05.815Z,98693.44
2023-01-27T00:34:09.909Z,98684.84
2023-01-27T00:35:11.497Z,98691.06
2023-01-27T00:36:12.812Z,98689.81
2023-01-27T00:37:14.418Z,98684.06
2023-01-27T00:38:15.619Z,98690.84
2023-01-27T00:39:16.943Z,98686.44
2023-01-27T00:40:18.315Z,98691.63
2023-01-27T00:41:19.840Z,98694.47
2023-01-27T00:42:21.312Z,98694.69
2023-01-27T00:43:24.151Z,98698.31
2023-01-27T00:44:25.405Z,98693.09
2023-01-27T00:45:26.682Z,98698.88
2023-01-27T00:46:27.947Z,98695.47
2023-01-27T00:47:29.257Z,98689.59
2023-01-27T00:48:30.706Z,98693.22
2023-01-27T00:49:31.992Z,98694.78
2023-01-27T00:50:33.295Z,98690.84
2023-01-27T00:51:34.533Z,98690.38
2023-01-27T00:52:35.742Z,98695.59
2023-01-27T00:53:37.262Z,98684.38
2023-01-27T00:54:38.491Z,98695.38
2023-01-27T00:55:39.769Z,98696.97
2023-01-27T00:56:41.417Z,98698.97
2023-01-27T00:57:42.608Z,98688.38
2023-01-27T00:58:43.872Z,98691.16
2023-01-27T00:59:45.106Z,98689.25
2023-01-27T01:00:46.361Z,98693.66
2023-01-27T01:01:47.597Z,98695.69
2023-01-27T01:02:48.843Z,98697.63
2023-01-27T01:03:50.408Z,98694.25
2023-01-27T01:04:51.697Z,98694.47
2023-01-27T01:05:53.095Z,98697.28
2023-01-27T01:06:54.304Z,98689.94
2023-01-27T01:07:55.654Z,98689.81
2023-01-27T01:08:57.280Z,98696.63
2023-01-27T01:09:58.670Z,98701.81
2023-01-27T01:10:59.978Z,98698.19
2023-01-27T01:12:01.258Z,98703.63
2023-01-27T01:13:02.534Z,98699.44
2023-01-27T01:14:03.880Z,98693.31
2023-01-27T01:15:05.371Z,98698.31
2023-01-27T01:16:10.974Z,98703.28
2023-01-27T01:17:12.271Z,98697.88
2023-01-27T01:18:13.592Z,98696.63
2023-01-27T01:19:15.580Z,98703.63
2023-01-27T01:20:16.871Z,98705.81
2023-01-27T01:21:18.162Z,98698.78
2023-01-27T01:22:19.434Z,98714.16
2023-01-27T01:23:20.615Z,98706.59
2023-01-27T01:24:21.970Z,98704.19
2023-01-27T01:25:23.347Z,98703.63
2023-01-27T01:26:24.589Z,98706.22
2023-01-27T01:27:25.860Z,98715.63
2023-01-27T01:28:27.194Z,98709.97
2023-01-27T01:29:28.498Z,98706.34
2023-01-27T01:30:29.977Z,98710.78
2023-01-27T01:31:31.311Z,98703.53
2023-01-27T01:32:32.622Z,98707.38
2023-01-27T01:33:33.877Z,98707.38
2023-01-27T01:34:35.641Z,98701.38
2023-01-27T01:35:37.653Z,98702.97
2023-01-27T01:36:38.871Z,98696.38
2023-01-27T01:37:40.132Z,98703.19
2023-01-27T01:38:41.839Z,98697.19
2023-01-27T01:39:43.104Z,98698.97
2023-01-27T01:40:44.666Z,98704.41
2023-01-27T01:41:45.927Z,98697.19
2023-01-27T01:42:50.252Z,98693.78
2023-01-27T01:43:51.599Z,98702.19
2023-01-27T01:45:12.770Z,98695.72
2023-01-27T01:46:14.122Z,98703.97
2023-01-27T01:47:16.847Z,98697.41
2023-01-27T01:48:21.645Z,98692.00
2023-01-27T01:49:26.711Z,98691.16
2023-01-27T01:50:28.060Z,98688.56
2023-01-27T01:51:29.353Z,98692.00
2023-01-27T01:52:30.857Z,98696.38
2023-01-27T01:53:35.277Z,98687.22
2023-01-27T01:54:43.157Z,98692.44
2023-01-27T01:55:45.759Z,98692.44
2023-01-27T01:56:55.654Z,98690.63
2023-01-27T01:57:57.172Z,98681.34
2023-01-27T01:59:01.508Z,98683.94
2023-01-27T02:00:07.623Z,98674.75
2023-01-27T02:01:15.988Z,98677.38
2023-01-27T02:02:19.730Z,98677.59
2023-01-27T02:03:24.519Z,98677.84
2023-01-27T02:04:27.854Z,98678.84
2023-01-27T02:05:37.366Z,98681.47
2023-01-27T02:06:45.426Z,98676.81
2023-01-27T02:07:57.614Z,98684.63
2023-01-27T02:08:59.183Z,98676.03
2023-01-27T02:10:00.739Z,98678.28
2023-01-27T02:11:02.087Z,98672.69
2023-01-27T02:12:03.511Z,98676.13
2023-01-27T02:13:04.755Z,98673.28
2023-01-27T02:14:07.800Z,98676.25
2023-01-27T02:15:11.060Z,98666.84
2023-01-27T02:16:13.259Z,98669.66
2023-01-27T02:17:15.024Z,98670.34
2023-01-27T02:18:16.235Z,98665.25
2023-01-27T02:19:22.436Z,98664.47
2023-01-27T02:20:23.662Z,98673.06
2023-01-27T02:21:25.005Z,98671.03
2023-01-27T02:22:33.476Z,98680.44
2023-01-27T02:23:46.464Z,98677.59
2023-01-27T02:24:52.572Z,98676.03
2023-01-27T02:26:05.995Z,98669.22
2023-01-27T02:27:08.062Z,98672.94
2023-01-27T02:28:09.267Z,98672.94
2023-01-27T02:29:12.063Z,98667.75
2023-01-27T02:30:13.420Z,98662.53
2023-01-27T02:31:15.026Z,98671.16
2023-01-27T02:32:23.979Z,98659.94
2023-01-27T02:33:25.300Z,98665.38
2023-01-27T02:34:28.523Z,98661.63
2023-01-27T02:35:33.596Z,98671.25
2023-01-27T02:36:38.848Z,98669.66
2023-01-27T02:37:40.215Z,98664.34
2023-01-27T02:38:46.380Z,98666.94
2023-01-27T02:39:49.407Z,98668.44
2023-01-27T02:40:54.082Z,98668.09
2023-01-27T02:41:56.871Z,98676.25
2023-01-27T02:42:58.225Z,98669.66
2023-01-27T02:43:59.979Z,98669.66
2023-01-27T02:45:01.403Z,98671.47
2023-01-27T02:46:02.923Z,98667.28
2023-01-27T02:47:04.220Z,98665.72
2023-01-27T02:48:05.808Z,98663.13
2023-01-27T02:49:07.098Z,98667.50
2023-01-27T02:50:09.270Z,98665.91
2023-01-27T02:51:10.601Z,98669.31
2023-01-27T02:52:15.901Z,98665.13
2023-01-27T02:53:17.180Z,98667.19
2023-01-27T02:54:18.521Z,98664.56
2023-01-27T02:55:19.750Z,98663.97
2023-01-27T02:56:21.297Z,98661.63
2023-01-27T02:57:22.571Z,98666.59
2023-01-27T02:58:39.771Z,98659.00
2023-01-27T02:59:45.041Z,98665.44
2023-01-27T03:00:46.473Z,98664.09
2023-01-27T03:01:47.872Z,98656.53
2023-01-27T03:02:49.208Z,98657.50
2023-01-27T03:03:50.674Z,98663.75
2023-01-27T03:04:53.635Z,98656.16
2023-01-27T03:05:54.865Z,98660.56
2023-01-27T03:06:57.102Z,98661.81
2023-01-27T03:07:58.811Z,98658.63
2023-01-27T03:09:00.069Z,98659.66
2023-01-27T03:10:02.078Z,98662.25
2023-01-27T03:11:04.626Z,98665.06
2023-01-27T03:12:06.005Z,98657.72
2023-01-27T03:13:07.266Z,98668.91
2023-01-27T03:14:08.929Z,98665.53
2023-01-27T03:15:10.438Z,98668.34
2023-01-27T03:16:14.446Z,98664.94
2023-01-27T03:17:15.884Z,98666.75
2023-01-27T03:18:17.407Z,98670.38
2023-01-27T03:19:18.755Z,98670.38
2023-01-27T03:20:20.522Z,98668.78
2023-01-27T03:21:21.811Z,98667.41
2023-01-27T03:22:23.391Z,98671.03
2023-01-27T03:23:24.722Z,98663.47
2023-01-27T03:24:26.607Z,98664.03
2023-01-27T03:25:29.777Z,98660.41
2023-01-27T03:26:31.065Z,98666.41
2023-01-27T03:27:35.592Z,98670.38
2023-01-27T03:28:59.849Z,98670.38
2023-01-27T03:30:01.979Z,98667.78
2023-01-27T03:31:06.852Z,98671.16
2023-01-27T03:32:16.395Z,98678.53
2023-01-27T03:33:28.584Z,98676.38
2023-01-27T03:34:43.151Z,98671.53
2023-01-27T03:35:51.212Z,98675.94
2023-01-27T03:36:55.599Z,98670.94
2023-01-27T03:37:57.959Z,98671.84
2023-01-27T03:38:59.198Z,98674.03
2023-01-27T03:40:00.520Z,98680.25
2023-01-27T03:41:03.626Z,98679.22
2023-01-27T03:42:04.924Z,98681.03
2023-01-27T03:43:06.211Z,98678.66
2023-01-27T03:44:07.480Z,98675.84
2023-01-27T03:45:09.795Z,98681.47
2023-01-27T03:46:14.274Z,98682.94
2023-01-27T03:47:15.574Z,98683.75
2023-01-27T03:48:16.814Z,98679.09
2023-01-27T03:49:18.062Z,98676.28
2023-01-27T03:50:20.479Z,98669.06
2023-01-27T03:51:23.198Z,98679.47
2023-01-27T03:52:24.431Z,98672.81
2023-01-27T03:53:25.730Z,98670.53
2023-01-27T03:54:26.947Z,98668.72
2023-01-27T03:55:29.303Z,98666.69
2023-01-27T03:56:30.703Z,98672.69
2023-01-27T03:57:31.959Z,98676.09
2023-01-27T03:58:34.555Z,98682.09
2023-01-27T03:59:35.772Z,98676.75
2023-01-27T04:00:37.052Z,98677.34
2023-01-27T04:01:38.297Z,98678.13
2023-01-27T04:02:39.627Z,98681.53
2023-01-27T04:03:41.273Z,98673.34
2023-01-27T04:04:42.471Z,98674.06
2023-01-27T04:05:43.666Z,98670.09
2023-01-27T04:06:44.971Z,98676.09
2023-01-27T04:07:46.218Z,98681.28
2023-01-27T04:08:47.483Z,98675.28
2023-01-27T04:09:48.784Z,98676.09
2023-01-27T04:10:50.003Z,98679.47
2023-01-27T04:11:51.714Z,98682.09
2023-01-27T04:12:53.020Z,98674.06
2023-01-27T04:13:54.307Z,98679.28
2023-01-27T04:14:55.583Z,98686.06
2023-01-27T04:15:56.850Z,98688.44
2023-01-27T04:17:02.757Z,98683.00
2023-01-27T04:18:04.017Z,98692.41
2023-01-27T04:19:06.518Z,98685.59
2023-01-27T04:20:08.126Z,98694.44
2023-01-27T04:21:09.390Z,98702.22
2023-01-27T04:22:11.809Z,98692.63
2023-01-27T04:23:13.002Z,98695.22
2023-01-27T04:24:15.017Z,98692.41
2023-01-27T04:25:16.579Z,98701.22
2023-01-27T04:26:18.244Z,98693.41
2023-01-27T04:27:19.433Z,98694.44
2023-01-27T04:28:37.303Z,98698.28
2023-01-27T04:29:42.347Z,98698.06
2023-01-27T04:30:43.640Z,98692.63
2023-01-27T04:31:45.089Z,98700.44
2023-01-27T04:32:46.364Z,98702.22
2023-01-27T04:33:47.722Z,98697.63
2023-01-27T04:34:49.042Z,98688.00
2023-01-27T04:35:50.247Z,98691.16
2023-01-27T04:36:51.486Z,98696.94
2023-01-27T04:37:52.767Z,98684.72
2023-01-27T04:38:53.962Z,98696.59
2023-01-27T04:39:55.208Z,98698.19
2023-01-27T04:40:56.476Z,98700.66
2023-01-27T04:41:58.262Z,98694.00
2023-01-27T04:42:59.524Z,98688.00
2023-01-27T04:44:01.587Z,98694.78
2023-01-27T04:45:02.902Z,98698.41
2023-01-27T04:46:04.194Z,98696.25
2023-01-27T04:47:05.496Z,98697.75
2023-01-27T04:48:06.960Z,98701.56
2023-01-27T04:49:08.375Z,98701.44
2023-01-27T04:50:10.048Z,98695.00
2023-01-27T04:51:11.318Z,98691.50
2023-01-27T04:52:12.532Z,98698.44
2023-01-27T04:53:13.734Z,98703.50
2023-01-27T04:54:14.993Z,98691.75
2023-01-27T04:55:16.640Z,98690.81
2023-01-27T04:56:21.295Z,98688.66
2023-01-27T04:57:22.527Z,98693.50
2023-01-27T04:58:23.745Z,98696.13
2023-01-27T04:59:25.042Z,98687.28
2023-01-27T05:00:26.374Z,98688.31
2023-01-27T05:01:28.399Z,98682.44
2023-01-27T05:02:29.731Z,98681.41
2023-01-27T05:03:31.000Z,98690.59
2023-01-27T05:04:32.230Z,98689.81
2023-01-27T05:05:33.456Z,98688.19
2023-01-27T05:06:34.797Z,98698.41
2023-01-27T05:07:36.035Z,98690.00
2023-01-27T05:08:37.577Z,98696.13
2023-01-27T05:09:38.973Z,98688.06
2023-01-27T05:10:42.631Z,98694.88
2023-01-27T05:11:43.847Z,98702.22
2023-01-27T05:12:45.246Z,98695.22
2023-01-27T05:13:46.821Z,98689.81
2023-01-27T05:14:48.158Z,98688.78
2023-01-27T05:15:49.551Z,98678.94
2023-01-27T05:16:50.915Z,98682.19
2023-01-27T05:17:52.298Z,98685.16
2023-01-27T05:18:53.588Z,98681.78
2023-01-27T05:19:54.830Z,98680.97
2023-01-27T05:20:58.515Z,98684.94
2023-01-27T05:21:59.747Z,98689.94
2023-01-27T05:23:01.007Z,98705.09
2023-01-27T05:24:02.556Z,98696.72
2023-01-27T05:25:04.234Z,98705.56
2023-01-27T05:26:06.772Z,98703.94
2023-01-27T05:27:07.990Z,98699.56
2023-01-27T05:28:09.227Z,98707.94
2023-01-27T05:29:10.573Z,98702.84
2023-01-27T05:30:12.145Z,98703.63
2023-01-27T05:31:15.008Z,98703.63
2023-01-27T05:32:16.311Z,98704.41
2023-01-27T05:33:17.682Z,98706.00
2023-01-27T05:34:18.877Z,98707.25
2023-01-27T05:35:20.117Z,98709.50
2023-01-27T05:36:22.609Z,98709.50
2023-01-27T05:37:23.859Z,98716.41
2023-01-27T05:38:25.205Z,98707.13
2023-01-27T05:39:26.506Z,98720.38
2023-01-27T05:40:27.774Z,98728.19
2023-01-27T05:41:29.934Z,98721.38
2023-01-27T05:42:31.184Z,98723.91
2023-01-27T05:43:33.580Z,98722.09
2023-01-27T05:44:34.800Z,98729.31
2023-01-27T05:45:36.071Z,98726.72
2023-01-27T05:46:39.172Z,98725.13
2023-01-27T05:47:40.504Z,98730.69
2023-01-27T05:48:43.528Z,98733.53
2023-01-27T05:49:44.766Z,98728.09
2023-01-27T05:50:53.817Z,98729.31
2023-01-27T05:51:55.075Z,98726.94
2023-01-27T05:52:56.399Z,98729.31
2023-01-27T05:53:57.720Z,98726.28
2023-01-27T05:54:58.975Z,98719.25
2023-01-27T05:56:00.287Z,98726.16
2023-01-27T05:57:01.521Z,98725.97
2023-01-27T05:58:02.810Z,98719.38
2023-01-27T05:59:04.056Z,98711.22
2023-01-27T06:00:05.578Z,98717.56
2023-01-27T06:01:20.046Z,98718.22
2023-01-27T06:02:22.825Z,98710.41
2023-01-27T06:03:25.029Z,98712.22
2023-01-27T06:04:26.647Z,98718.91
2023-01-27T06:05:27.925Z,98724.34
2023-01-27T06:06:29.812Z,98726.28
2023-01-27T06:07:31.133Z,98718.09
2023-01-27T06:08:32.613Z,98725.13
2023-01-27T06:09:33.803Z,98725.00
2023-01-27T06:10:35.146Z,98729.41
2023-01-27T06:11:36.447Z,98721.59
2023-01-27T06:12:37.749Z,98723.13
2023-01-27T06:13:39.207Z,98718.22
2023-01-27T06:14:40.477Z,98713.81
2023-01-27T06:15:42.733Z,98721.06
2023-01-27T06:16:44.019Z,98717.44
2023-01-27T06:17:45.363Z,98720.72
2023-01-27T06:18:46.912Z,98724.09
2023-01-27T06:19:48.173Z,98725.13
2023-01-27T06:20:50.524Z,98721.28
2023-01-27T06:21:52.900Z,98725.47
2023-01-27T06:22:54.192Z,98723.91
2023-01-27T06:23:55.458Z,98729.53
2023-01-27T06:24:56.738Z,98727.16
2023-01-27T06:26:02.018Z,98718.09
2023-01-27T06:27:03.265Z,98726.72
2023-01-27T06:28:04.994Z,98718.34
2023-01-27T06:29:06.267Z,98725.34
2023-01-27T06:30:07.940Z,98726.56
2023-01-27T06:31:10.841Z,98721.59
2023-01-27T06:32:12.116Z,98727.72
2023-01-27T06:33:14.821Z,98724.78
2023-01-27T06:34:16.264Z,98732.16
2023-01-27T06:35:17.490Z,98733.97
2023-01-27T06:36:19.944Z,98736.25
2023-01-27T06:37:21.235Z,98728.88
2023-01-27T06:38:22.503Z,98725.13
2023-01-27T06:39:23.796Z,98724.78
2023-01-27T06:40:25.824Z,98725.59
2023-01-27T06:41:27.032Z,98727.97
2023-01-27T06:42:28.300Z,98734.97
2023-01-27T06:43:29.635Z,98729.78
2023-01-27T06:44:30.874Z,98738.50
2023-01-27T06:45:32.118Z,98735.91
2023-01-27T06:46:33.457Z,98748.91
2023-01-27T06:47:34.735Z,98747.34
2023-01-27T06:48:36.244Z,98751.41
2023-01-27T06:49:37.533Z,98754.47
2023-01-27T06:50:38.810Z,98747.34
2023-01-27T06:51:40.183Z,98740.78
2023-01-27T06:52:41.479Z,98752.06
2023-01-27T06:53:42.726Z,98757.63
2023-01-27T06:54:44.064Z,98762.28
2023-01-27T06:55:45.359Z,98759.81
2023-01-27T06:56:46.594Z,98760.13
2023-01-27T06:57:47.839Z,98760.78
2023-01-27T06:58:49.110Z,98769.16
2023-01-27T06:59:50.299Z,98773.94
2023-01-27T07:00:51.557Z,98771.88
2023-01-27T07:01:52.910Z,98772.13
2023-01-27T07:02:58.007Z,98766.25
2023-01-27T07:03:59.351Z,98775.31
2023-01-27T07:05:00.671Z,98777.09
2023-01-27T07:06:01.900Z,98775.75
2023-01-27T07:07:03.245Z,98778.69
2023-01-27T07:08:04.505Z,98788.66
2023-01-27T07:09:05.768Z,98791.50
2023-01-27T07:10:07.365Z,98789.53
2023-01-27T07:11:08.631Z,98796.94
2023-01-27T07:12:09.820Z,98792.16
2023-01-27T07:13:12.392Z,98796.69
2023-01-27T07:14:13.665Z,98787.50
2023-01-27T07:15:14.963Z,98796.78
2023-01-27T07:16:16.262Z,98794.19
2023-01-27T07:17:17.600Z,98786.84
2023-01-27T07:18:18.847Z,98793.72
2023-01-27T07:19:20.064Z,98787.72
2023-01-27T07:20:21.344Z,98786.28
2023-01-27T07:21:22.607Z,98799.53
2023-01-27T07:22:23.816Z,98798.38
2023-01-27T07:23:25.081Z,98793.84
2023-01-27T07:24:26.451Z,98796.19
2023-01-27T07:25:28.380Z,98793.88
2023-01-27T07:26:29.696Z,98795.91
2023-01-27T07:27:30.967Z,98793.53
2023-01-27T07:28:32.208Z,98785.91
2023-01-27T07:29:33.439Z,98792.94
2023-01-27T07:30:34.717Z,98795.19
2023-01-27T07:31:36.079Z,98796.19
2023-01-27T07:32:37.394Z,98799.97
2023-01-27T07:33:38.751Z,98797.13
2023-01-27T07:34:40.031Z,98803.59
2023-01-27T07:35:41.256Z,98797.91
2023-01-27T07:36:42.519Z,98804.94
2023-01-27T07:37:43.902Z,98805.44
2023-01-27T07:38:48.454Z,98805.19
2023-01-27T07:39:49.737Z,98816.88
2023-01-27T07:40:50.948Z,98811.88
2023-01-27T07:41:52.465Z,98814.50
2023-01-27T07:42:53.852Z,98811.88
2023-01-27T07:43:55.057Z,98812.69
2023-01-27T07:45:00.776Z,98806.09
2023-01-27T07:46:02.055Z,98808.34
2023-01-27T07:47:03.556Z,98814.56
2023-01-27T07:48:08.562Z,98817.94
2023-01-27T07:49:09.859Z,98817.16
2023-01-27T07:50:11.710Z,98821.50
2023-01-27T07:51:13.563Z,98814.56
2023-01-27T07:52:14.767Z,98824.66
2023-01-27T07:53:15.982Z,98829.63
2023-01-27T07:54:17.447Z,98822.38
2023-01-27T07:55:18.693Z,98827.81
2023-01-27T07:56:19.886Z,98830.97
2023-01-27T07:57:21.085Z,98824.84
2023-01-27T07:58:22.350Z,98823.94
2023-01-27T07:59:23.601Z,98826.78
2023-01-27T08:00:25.189Z,98826.44
2023-01-27T08:01:26.436Z,98821.56
2023-01-27T08:02:28.361Z,98827.16
2023-01-27T08:03:29.758Z,98826.34
2023-01-27T08:04:35.189Z,98824.13
2023-01-27T08:05:41.414Z,98821.94
2023-01-27T08:06:42.625Z,98821.34
2023-01-27T08:07:43.850Z,98821.84
2023-01-27T08:08:45.084Z,98823.09
2023-01-27T08:09:46.338Z,98822.72
2023-01-27T08:10:47.563Z,98826.56
2023-01-27T08:11:48.907Z,98827.03
2023-01-27T08:12:50.334Z,98830.84
2023-01-27T08:13:52.548Z,98834.03
2023-01-27T08:14:53.835Z,98832.78
2023-01-27T08:15:59.273Z,98830.19
2023-01-27T08:17:00.789Z,98834.03
2023-01-27T08:18:02.033Z,98832.66
2023-01-27T08:19:03.263Z,98831.63
2023-01-27T08:20:04.674Z,98830.84
2023-01-27T08:21:07.153Z,98836.41
2023-01-27T08:22:08.402Z,98831.69
2023-01-27T08:23:09.663Z,98841.53
2023-01-27T08:24:11.205Z,98838.13
2023-01-27T08:25:12.460Z,98839.56
2023-01-27T08:26:13.707Z,98841.38
2023-01-27T08:27:15.177Z,98832.59
2023-01-27T08:28:16.421Z,98839.56
2023-01-27T08:29:17.674Z,98841.38
2023-01-27T08:30:19.017Z,98844.00
2023-01-27T08:31:20.314Z,98847.09
2023-01-27T08:32:21.587Z,98848.69
2023-01-27T08:33:23.615Z,98847.03
2023-01-27T08:34:24.819Z,98846.94
2023-01-27T08:35:26.094Z,98844.19
2023-01-27T08:36:27.329Z,98838.63
2023-01-27T08:37:28.597Z,98840.06
2023-01-27T08:38:29.897Z,98840.06
2023-01-27T08:39:31.349Z,98848.91
2023-01-27T08:40:32.618Z,98840.31
2023-01-27T08:41:33.880Z,98851.88
2023-01-27T08:42:35.174Z,98847.03
2023-01-27T08:43:36.479Z,98847.59
2023-01-27T08:44:37.702Z,98848.59
2023-01-27T08:45:39.040Z,98854.97
2023-01-27T08:46:40.320Z,98857.56
2023-01-27T08:47:41.576Z,98857.22
2023-01-27T08:48:42.927Z,98856.28
2023-01-27T08:49:44.187Z,98857.50
2023-01-27T08:50:45.423Z,98859.09
2023-01-27T08:51:46.791Z,98854.91
2023-01-27T08:52:48.094Z,98851.28
2023-01-27T08:53:49.288Z,98859.03
2023-01-27T08:54:50.576Z,98856.56
2023-01-27T08:55:52.343Z,98857.28
2023-01-27T08:56:53.569Z,98861.13
2023-01-27T08:57:54.887Z,98865.53
2023-01-27T08:58:56.109Z,98865.31
2023-01-27T08:59:57.494Z,98862.16
2023-01-27T09:00:59.860Z,98867.91
2023-01-27T09:02:01.123Z,98861.50
2023-01-27T09:03:02.379Z,98865.19
2023-01-27T09:04:03.697Z,98869.16
2023-01-27T09:05:05.055Z,98871.19
2023-01-27T09:06:08.240Z,98864.88
2023-01-27T09:07:10.111Z,98861.50
2023-01-27T09:08:11.371Z,98863.88
2023-01-27T09:09:12.649Z,98858.66
2023-01-27T09:10:15.585Z,98860.13
2023-01-27T09:11:17.501Z,98858.75
2023-01-27T09:12:18.856Z,98857.97
2023-01-27T09:13:20.127Z,98849.69
2023-01-27T09:14:21.367Z,98854.78
2023-01-27T09:15:22.584Z,98856.81
2023-01-27T09:16:23.799Z,98847.25
2023-01-27T09:17:25.170Z,98846.59
2023-01-27T09:18:26.399Z,98850.47
2023-01-27T09:19:27.579Z,98853.09
2023-01-27T09:20:28.968Z,98856.84
2023-01-27T09:21:30.193Z,98850.84
2023-01-27T09:22:31.401Z,98854.84
2023-01-27T09:23:35.273Z,98850.41
2023-01-27T09:24:36.523Z,98855.97
2023-01-27T09:25:37.813Z,98853.34
2023-01-27T09:26:39.088Z,98852.00
2023-01-27T09:27:40.432Z,98854.84
2023-01-27T09:28:41.712Z,98854.59
2023-01-27T09:29:42.968Z,98856.19
2023-01-27T09:30:46.076Z,98862.13
2023-01-27T09:31:47.799Z,98862.44
2023-01-27T09:32:49.241Z,98866.78
2023-01-27T09:33:50.459Z,98864.75
2023-01-27T09:34:51.697Z,98870.53
2023-01-27T09:35:56.184Z,98866.94
2023-01-27T09:37:00.490Z,98860.75
2023-01-27T09:38:03.622Z,98866.69
2023-01-27T09:39:06.847Z,98857.50
2023-01-27T09:40:12.175Z,98864.66
2023-01-27T09:41:32.431Z,98860.91
2023-01-27T09:42:43.055Z,98856.28
2023-01-27T09:44:07.038Z,98867.50
2023-01-27T09:45:18.883Z,98866.22
2023-01-27T09:46:26.104Z,98867.38
2023-01-27T09:47:39.380Z,98868.53
2023-01-27T09:48:46.752Z,98866.50
2023-01-27T09:49:57.092Z,98869.25
2023-01-27T09:51:05.101Z,98861.56
2023-01-27T09:52:06.359Z,98860.66
2023-01-27T09:53:26.479Z,98860.66
2023-01-27T09:54:35.217Z,98861.44
2023-01-27T09:55:55.277Z,98870.88
2023-01-27T09:57:03.764Z,98860.22
2023-01-27T09:58:25.779Z,98867.38
2023-01-27T09:59:27.094Z,98862.72
2023-01-27T10:00:40.566Z,98858.63
2023-01-27T10:01:48.205Z,98861.94
2023-01-27T10:02:55.355Z,98862.63
2023-01-27T10:04:02.411Z,98866.56
2023-01-27T10:05:19.583Z,98866.69
2023-01-27T10:06:20.805Z,98858.19
2023-01-27T10:07:54.544Z,98866.34
2023-01-27T10:08:58.816Z,98873.72
2023-01-27T10:10:00.031Z,98869.66
2023-01-27T10:11:01.329Z,98873.84
2023-01-27T10:12:14.841Z,98867.59
2023-01-27T10:13:36.624Z,98871.91
2023-01-27T10:14:44.337Z,98871.69
2023-01-27T10:15:45.557Z,98859.09
2023-01-27T10:17:02.119Z,98864.75
2023-01-27T10:18:09.218Z,98858.31
2023-01-27T10:19:25.781Z,98860.78
2023-01-27T10:20:35.370Z,98856.84
2023-01-27T10:21:51.665Z,98855.59
2023-01-27T10:22:55.884Z,98853.88
2023-01-27T10:24:03.998Z,98862.50
2023-01-27T10:25:20.527Z,98861.72
2023-01-27T10:26:34.879Z,98859.00
2023-01-27T10:27:37.029Z,98851.50
2023-01-27T10:28:39.454Z,98865.78
2023-01-27T10:29:45.093Z,98864.88
2023-01-27T10:31:05.641Z,98867.38
2023-01-27T10:32:16.144Z,98861.81
2023-01-27T10:33:21.535Z,98867.50
2023-01-27T10:34:36.456Z,98862.84
2023-01-27T10:35:56.398Z,98864.41
2023-01-27T10:37:23.624Z,98860.91
2023-01-27T10:38:34.139Z,98858.66
2023-01-27T10:39:44.789Z,98845.84
2023-01-27T10:41:11.291Z,98850.59
2023-01-27T10:42:23.368Z,98852.50
2023-01-27T10:43:35.656Z,98862.16
2023-01-27T10:44:43.615Z,98861.81
2023-01-27T10:46:17.312Z,98861.94
2023-01-27T10:47:18.535Z,98855.13
2023-01-27T10:48:19.734Z,98861.72
2023-01-27T10:49:39.935Z,98862.75
2023-01-27T10:50:43.407Z,98857.53
2023-01-27T10:51:49.495Z,98865.22
2023-01-27T10:52:57.585Z,98866.34
2023-01-27T10:54:13.838Z,98870.22
2023-01-27T10:55:19.521Z,98866.47
2023-01-27T10:56:20.752Z,98871.56
2023-01-27T10:57:24.969Z,98866.16
2023-01-27T10:58:44.972Z,98872.47
2023-01-27T11:00:17.427Z,98873.38
2023-01-27T11:01:21.801Z,98866.59
2023-01-27T11:02:29.930Z,98866.38
2023-01-27T11:03:34.826Z,98873.38
2023-01-27T11:04:39.423Z,98868.41
2023-01-27T11:05:47.012Z,98870.91
2023-01-27T11:06:49.884Z,98866.13
2023-01-27T11:07:54.780Z,98869.88
2023-01-27T11:09:04.704Z,98868.66
2023-01-27T11:10:08.306Z,98873.28
2023-01-27T11:11:09.757Z,98872.72
2023-01-27T11:12:12.495Z,98866.00
2023-01-27T11:13:17.094Z,98875.91
2023-01-27T11:14:23.987Z,98868.84
2023-01-27T11:15:30.359Z,98870.56
2023-01-27T11:16:34.601Z,98864.78
2023-01-27T11:17:44.777Z,98877.25
2023-01-27T11:18:49.095Z,98865.56
2023-01-27T11:19:53.137Z,98864.88
2023-01-27T11:21:04.936Z,98860.13
2023-01-27T11:22:15.739Z,98858.31
2023-01-27T11:23:30.660Z,98859.78
2023-01-27T11:24:41.118Z,98870.75
2023-01-27T11:25:45.054Z,98861.94
2023-01-27T11:26:51.520Z,98865.22
2023-01-27T11:28:03.957Z,98873.59
2023-01-27T11:29:24.075Z,98866.81
2023-01-27T11:30:28.745Z,98864.78
2023-01-27T11:31:30.210Z,98865.78
2023-01-27T11:32:34.499Z,98866.72
2023-01-27T11:33:41.787Z,98856.59
2023-01-27T11:34:49.089Z,98855.47
2023-01-27T11:35:51.110Z,98847.66
2023-01-27T11:36:52.727Z,98847.53
2023-01-27T11:38:00.612Z,98851.03
2023-01-27T11:39:02.188Z,98847.53
2023-01-27T11:40:04.177Z,98850.94
2023-01-27T11:41:05.555Z,98845.84
2023-01-27T11:42:08.854Z,98843.56
2023-01-27T11:43:15.462Z,98846.72
2023-01-27T11:44:19.015Z,98845.50
2023-01-27T11:45:20.619Z,98848.53
2023-01-27T11:46:23.128Z,98851.28
2023-01-27T11:47:30.012Z,98854.56
2023-01-27T11:48:54.499Z,98851.72
2023-01-27T11:49:56.498Z,98846.72
2023-01-27T11:50:57.752Z,98849.56
2023-01-27T11:52:01.352Z,98845.03
2023-01-27T11:53:14.756Z,98844.91
2023-01-27T11:54:18.361Z,98848.66
2023-01-27T11:55:27.758Z,98843.69
2023-01-27T11:56:29.891Z,98839.81
2023-01-27T11:57:31.125Z,98839.13
2023-01-27T11:58:47.158Z,98838.59
2023-01-27T11:59:50.213Z,98837.78
2023-01-27T12:00:54.637Z,98831.06
2023-01-27T12:02:10.699Z,98834.28
2023-01-27T12:03:24.077Z,98838.69
2023-01-27T12:04:44.017Z,98841.06
2023-01-27T12:05:48.561Z,98838.03
2023-01-27T12:07:04.188Z,98838.69
2023-01-27T12:08:05.831Z,98839.59
2023-01-27T12:09:07.192Z,98840.38
2023-01-27T12:10:41.123Z,98843.44
2023-01-27T12:11:42.363Z,98837.88
2023-01-27T12:12:44.322Z,98837.22
2023-01-27T12:13:51.957Z,98828.47
2023-01-27T12:14:54.238Z,98822.00
2023-01-27T12:15:58.728Z,98820.06
2023-01-27T12:17:02.062Z,98816.00
2023-01-27T12:18:05.055Z,98821.88
2023-01-27T12:19:14.860Z,98820.06
2023-01-27T12:20:19.168Z,98823.72
2023-01-27T12:21:21.678Z,98820.31
2023-01-27T12:22:28.070Z,98824.97
2023-01-27T12:23:34.516Z,98818.72
2023-01-27T12:24:41.203Z,98823.72
2023-01-27T12:25:50.209Z,98828.59